Adelaide, California
Current Conditions -  °F | °C
As of 8:53 PM on Sunday 21 Dec 2014 (Local Time) from KPRB Reporting Station
Broken Clouds Broken Clouds  
Wind Chill: 56°   Ceiling: 1800
Heat Index: 56°   Visibility: 10mi
Dew Point: 53°   Wind: 5mph
Humidity: 90%   Direction: 320°NW
Pressure: 30.25"   Gusts: NA
Location:  35.6618°N, 120.707°W
Report Text: KPRB 220453Z AUTO 32004KT 10SM BKN018 13/12 A3025 RMK AO2 SLP242 T01330117 TSNO
Loading
Personal Weather Stations






























Interactive Weather Map New forecast layout! Learn more

10-Day Weather Forecast

Advertisements
Track Severe Weather on mobile